Time;durP1;ratioP1;P1;durP2;ratioP2;P2;SDS_P1;SDS_P2;PMS_P1;PMS_P2;Temp;Humidity;BMP_temperature;BMP_pressure;BME280_temperature;BME280_humidity;BME280_pressure;Samples;Min_cycle;Max_cycle;Signal;HPM_P1;HPM_P2
2021/06/03 00:00:40;;;;;;;33.03;15.50;;;;;;;13.51;89.31;101421.86;712185;1202;115925;-77
2021/06/03 00:16:05;;;;;;;39.80;20.10;;;;;;;13.28;90.10;101414.84;712278;1202;115835;-77
2021/06/03 00:31:27;;;;;;;23.60;12.15;;;;;;;12.99;90.63;101423.30;712487;1206;115422;-76
2021/06/03 00:46:47;;;;;;;29.60;14.65;;;;;;;12.91;92.10;101417.83;712307;1202;115816;-76
2021/06/03 01:02:08;;;;;;;22.85;11.35;;;;;;;12.73;93.09;101419.30;712312;1183;114439;-78
2021/06/03 01:17:29;;;;;;;22.95;11.68;;;;;;;12.61;92.02;101418.47;712285;1202;113938;-78
2021/06/03 01:32:56;;;;;;;36.87;18.40;;;;;;;12.64;94.36;101412.95;712489;1203;115333;-78
2021/06/03 01:48:19;;;;;;;17.73;9.55;;;;;;;12.48;94.92;101415.95;712309;1205;114373;-80
2021/06/03 02:03:40;;;;;;;24.40;13.73;;;;;;;12.40;95.64;101429.70;712357;1202;114194;-79
2021/06/03 02:19:08;;;;;;;41.15;18.28;;;;;;;12.18;95.96;101440.22;712164;1202;115920;-74
2021/06/03 02:34:29;;;;;;;19.50;11.30;;;;;;;12.27;97.34;101436.88;712477;1202;115531;-76
2021/06/03 02:49:49;;;;;;;35.93;16.47;;;;;;;12.36;98.26;101451.13;712535;1205;114718;-74
2021/06/03 03:05:10;;;;;;;38.90;19.30;;;;;;;12.44;96.71;101448.73;712333;1202;115551;-76
2021/06/03 03:20:31;;;;;;;21.70;12.95;;;;;;;12.68;98.92;101460.94;712261;1202;116005;-76
2021/06/03 03:35:52;;;;;;;21.53;12.35;;;;;;;13.01;97.96;101465.32;712142;1202;115810;-76
2021/06/03 03:51:14;;;;;;;31.78;16.80;;;;;;;13.22;97.48;101464.57;712317;1205;115057;-76
2021/06/03 04:06:38;;;;;;;19.30;10.10;;;;;;;13.40;96.23;101463.11;712573;1202;115679;-75
2021/06/03 04:21:59;;;;;;;12.03;8.33;;;;;;;13.76;93.89;101470.76;712382;1205;115973;-75
2021/06/03 04:37:20;;;;;;;13.95;9.00;;;;;;;14.07;92.17;101473.48;712208;1202;114738;-75
2021/06/03 04:52:42;;;;;;;15.90;8.20;;;;;;;14.38;91.21;101482.25;712185;1204;116371;-75
2021/06/03 05:08:04;;;;;;;19.60;9.70;;;;;;;14.68;92.37;101499.11;715154;1168;115511;-75
2021/06/03 05:23:25;;;;;;;14.17;8.63;;;;;;;15.24;91.81;101502.20;712519;1202;114701;-75
2021/06/03 05:38:46;;;;;;;12.87;8.03;;;;;;;15.78;90.97;101503.52;712425;1202;115642;-76
2021/06/03 05:54:07;;;;;;;9.23;6.93;;;;;;;16.53;89.81;101509.95;712225;1205;115020;-79
2021/06/03 06:09:28;;;;;;;9.40;7.40;;;;;;;17.17;88.22;101526.86;712386;1179;114321;-81
2021/06/03 06:24:49;;;;;;;13.60;7.80;;;;;;;18.08;86.90;101515.30;712349;1202;114945;-74
2021/06/03 06:40:10;;;;;;;22.43;7.30;;;;;;;19.04;84.11;101528.62;712293;1203;114259;-74
2021/06/03 06:55:32;;;;;;;122.35;60.68;;;;;;;19.60;80.94;101534.25;712236;1202;114213;-81
2021/06/03 07:10:54;;;;;;;13.23;6.65;;;;;;;20.66;79.78;101524.50;712334;1206;115046;-76
2021/06/03 07:26:15;;;;;;;10.53;6.90;;;;;;;21.70;74.41;101531.52;712386;1202;114533;-75
2021/06/03 07:41:36;;;;;;;8.95;4.48;;;;;;;22.63;71.21;101523.30;712274;1202;115434;-82
2021/06/03 07:56:58;;;;;;;23.27;19.57;;;;;;;23.35;70.77;101527.89;714690;1203;113906;-93
2021/06/03 08:12:18;;;;;;;7.48;3.95;;;;;;;24.13;65.06;101521.80;714549;1202;115516;-89
2021/06/03 08:27:39;;;;;;;4.55;3.20;;;;;;;24.52;64.15;101512.36;714684;1202;114091;-87
2021/06/03 08:43:02;;;;;;;4.70;2.70;;;;;;;26.01;61.60;101514.38;713036;1203;113871;-79
2021/06/03 08:58:26;;;;;;;3.65;2.43;;;;;;;25.63;56.07;101505.09;715078;1178;113674;-79
2021/06/03 09:13:51;;;;;;;8.43;4.53;;;;;;;27.06;55.00;101508.91;714506;1202;113858;-79
2021/06/03 09:29:14;;;;;;;9.40;4.23;;;;;;;27.57;51.28;101498.27;715308;1203;113871;-78
2021/06/03 09:44:40;;;;;;;4.80;2.43;;;;;;;26.47;50.67;101493.83;715195;1203;114890;-82
2021/06/03 10:00:21;;;;;;;5.80;2.43;;;;;;;28.53;49.72;101488.00;713672;1202;115204;-75
2021/06/03 10:15:43;;;;;;;4.63;2.30;;;;;;;27.55;49.24;101484.17;712530;1202;115298;-78
2021/06/03 10:31:33;;;;;;;4.33;2.10;;;;;;;27.37;46.54;101477.69;715193;1190;26204;-76
2021/06/03 10:46:55;;;;;;;10.48;5.03;;;;;;;27.47;46.48;101482.58;715409;1199;113964;-75
2021/06/03 11:02:57;;;;;;;3.03;2.18;;;;;;;26.57;46.49;101476.20;715195;1174;113885;-75
2021/06/03 11:18:19;;;;;;;6.33;2.50;;;;;;;28.02;46.71;101460.34;714836;1175;113944;-73
2021/06/03 11:34:11;;;;;;;4.40;2.50;;;;;;;28.23;44.84;101447.48;714921;1199;114419;-73
2021/06/03 11:49:40;;;;;;;5.25;2.60;;;;;;;27.96;46.50;101454.99;714865;1200;114338;-73
2021/06/03 12:05:12;;;;;;;6.83;3.73;;;;;;;26.84;46.23;101438.42;714967;1174;113396;-72
2021/06/03 12:20:33;;;;;;;8.17;3.73;;;;;;;28.81;46.13;101438.05;715144;1199;113258;-75
2021/06/03 12:35:59;;;;;;;2.95;2.20;;;;;;;29.82;44.83;101426.43;714548;1201;114659;-75
2021/06/03 12:51:20;;;;;;;5.35;3.33;;;;;;;30.55;43.89;101412.54;715589;1174;115164;-75
2021/06/03 13:06:47;;;;;;;3.03;1.80;;;;;;;29.46;42.64;101406.72;715170;1199;113733;-74
2021/06/03 13:22:10;;;;;;;3.30;2.03;;;;;;;28.49;43.43;101391.52;715711;1200;115235;-75
2021/06/03 13:37:33;;;;;;;6.05;2.25;;;;;;;29.97;41.12;101380.02;715751;1202;113783;-73
2021/06/03 13:53:00;;;;;;;10.77;6.97;;;;;;;30.48;40.91;101368.57;714849;1200;114833;-75
2021/06/03 14:08:24;;;;;;;7.20;3.35;;;;;;;30.21;41.41;101369.13;715076;1199;115124;-75
2021/06/03 14:23:45;;;;;;;2.80;2.13;;;;;;;28.94;41.17;101361.39;714934;1202;114205;-75
2021/06/03 14:39:05;;;;;;;14.00;5.43;;;;;;;29.88;41.76;101344.41;715061;1199;115246;-75
2021/06/03 14:54:25;;;;;;;9.30;7.47;;;;;;;29.26;41.90;101347.63;714841;1199;115352;-77
2021/06/03 15:09:47;;;;;;;32.30;19.90;;;;;;;28.34;42.47;101336.09;714845;1199;113628;-76
2021/06/03 15:25:11;;;;;;;16.00;11.13;;;;;;;28.98;42.77;101330.20;715249;1181;113193;-74
2021/06/03 15:40:31;;;;;;;5.65;3.80;;;;;;;28.11;42.10;101325.20;715613;1190;114855;-74
2021/06/03 15:55:57;;;;;;;8.50;7.40;;;;;;;28.11;42.82;101322.51;715655;1199;114969;-73
2021/06/03 16:11:17;;;;;;;11.20;7.43;;;;;;;28.51;41.87;101325.48;714870;1200;113827;-75
2021/06/03 16:26:38;;;;;;;8.58;3.55;;;;;;;28.05;42.98;101322.37;715183;1177;113762;-75
2021/06/03 16:41:59;;;;;;;10.40;3.87;;;;;;;26.72;43.84;101308.30;714850;1202;113950;-72
2021/06/03 16:57:20;;;;;;;8.00;5.23;;;;;;;25.86;45.31;101299.61;714763;1199;114266;-74
2021/06/03 17:12:41;;;;;;;14.10;8.70;;;;;;;25.33;46.94;101295.17;714806;1202;114624;-74
2021/06/03 17:28:02;;;;;;;12.20;8.60;;;;;;;24.71;48.39;101303.44;715032;1199;113958;-75
2021/06/03 17:43:25;;;;;;;10.27;4.40;;;;;;;23.98;50.35;101312.06;715167;1199;113631;-75
2021/06/03 17:58:46;;;;;;;9.18;5.00;;;;;;;23.31;51.71;101320.51;714732;1199;114557;-75
2021/06/03 18:14:07;;;;;;;23.30;5.27;;;;;;;22.87;53.83;101318.86;722440;1202;114883;-74
2021/06/03 18:29:28;;;;;;;19.25;5.30;;;;;;;22.47;55.55;101321.97;714866;1199;113126;-75
2021/06/03 18:44:48;;;;;;;10.67;8.63;;;;;;;21.77;57.44;101335.69;715272;1199;114412;-75
2021/06/03 19:00:22;;;;;;;38.30;18.65;;;;;;;21.25;59.25;101349.84;714910;1200;114332;-73
2021/06/03 19:15:43;;;;;;;25.75;13.15;;;;;;;20.47;62.44;101360.51;715303;1200;113960;-73
2021/06/03 19:31:27;;;;;;;34.40;15.65;;;;;;;19.92;65.04;101363.03;715058;1200;115313;-72
2021/06/03 19:46:48;;;;;;;27.53;16.78;;;;;;;19.36;65.74;101359.44;715239;1199;115212;-73
2021/06/03 20:02:08;;;;;;;28.10;14.97;;;;;;;18.87;68.41;101360.22;715626;1200;114713;-74
2021/06/03 20:17:29;;;;;;;19.30;10.18;;;;;;;18.31;69.86;101360.73;714619;1199;115133;-73
2021/06/03 20:32:51;;;;;;;19.53;10.23;;;;;;;18.08;71.36;101363.11;714883;1202;114054;-72
2021/06/03 20:48:12;;;;;;;111.40;49.45;;;;;;;17.85;73.90;101376.07;715291;1202;114615;-72
2021/06/03 21:03:33;;;;;;;36.93;18.50;;;;;;;17.45;77.26;101371.16;716015;1199;115442;-72
2021/06/03 21:18:53;;;;;;;67.68;28.38;;;;;;;17.29;78.96;101385.11;715662;1199;113968;-71
2021/06/03 21:34:14;;;;;;;25.13;13.33;;;;;;;17.33;79.48;101380.34;715143;1199;114869;-74
2021/06/03 21:49:35;;;;;;;19.43;10.85;;;;;;;17.43;80.69;101386.41;714225;1199;114823;-73
2021/06/03 22:04:55;;;;;;;22.00;10.73;;;;;;;17.40;81.22;101394.64;715313;1202;114528;-72
2021/06/03 22:20:25;;;;;;;21.80;12.50;;;;;;;17.23;81.12;101390.20;714611;1202;114200;-72
2021/06/03 22:35:48;;;;;;;17.80;9.83;;;;;;;17.27;81.16;101396.86;714627;1202;113968;-72
2021/06/03 22:51:30;;;;;;;21.43;11.40;;;;;;;17.13;82.56;101390.28;714062;1202;115568;-72
2021/06/03 23:06:52;;;;;;;15.10;8.90;;;;;;;16.91;82.99;101391.55;714784;1198;114322;-72
2021/06/03 23:22:12;;;;;;;29.90;13.55;;;;;;;16.83;84.59;101388.80;714630;1199;113761;-72
2021/06/03 23:37:33;;;;;;;24.48;13.33;;;;;;;16.65;86.66;101381.63;714273;1202;114351;-72
2021/06/03 23:52:54;;;;;;;29.80;14.98;;;;;;;16.40;88.70;101381.34;714635;1198;114464;-72
